createdAt,value
2022-12-31T00:00:43.635Z,67.45
2022-12-31T00:05:48.571Z,63.30
2022-12-31T00:10:50.715Z,70.53
2022-12-31T00:26:54.566Z,55.22
2022-12-31T00:47:41.025Z,62.75
2022-12-31T00:52:43.198Z,78.45
2022-12-31T00:57:45.322Z,69.65
2022-12-31T01:08:08.847Z,56.30
2022-12-31T01:23:45.999Z,51.35
2022-12-31T01:28:48.554Z,47.58
2022-12-31T01:33:55.173Z,48.17
2022-12-31T02:00:03.622Z,38.58
2022-12-31T02:05:23.273Z,35.53
2022-12-31T02:10:27.278Z,38.28
2022-12-31T02:21:14.296Z,33.83
2022-12-31T02:26:45.755Z,34.05
2022-12-31T02:37:24.233Z,36.17
2022-12-31T03:04:33.550Z,32.17
2022-12-31T03:14:58.369Z,33.28
2022-12-31T03:20:19.806Z,32.05
2022-12-31T03:30:58.380Z,32.72
2022-12-31T03:41:34.269Z,30.58
2022-12-31T03:46:37.785Z,35.85
2022-12-31T04:02:17.367Z,35.95
2022-12-31T04:12:34.985Z,36.40
2022-12-31T04:17:36.255Z,35.17
2022-12-31T04:22:40.277Z,36.90
2022-12-31T04:27:45.562Z,33.63
2022-12-31T04:38:09.846Z,32.90
2022-12-31T04:43:11.959Z,36.08
2022-12-31T04:48:16.481Z,30.23
2022-12-31T04:53:20.000Z,30.90
2022-12-31T04:58:22.313Z,31.42
2022-12-31T05:03:30.284Z,28.98
2022-12-31T05:13:55.534Z,26.92
2022-12-31T05:19:06.490Z,26.20
2022-12-31T05:29:18.354Z,26.75
2022-12-31T05:34:20.642Z,28.42
2022-12-31T05:39:22.865Z,29.45
2022-12-31T05:49:42.819Z,29.70
2022-12-31T06:00:08.962Z,32.80
2022-12-31T06:11:07.697Z,35.30
2022-12-31T06:21:40.577Z,31.52
2022-12-31T06:26:42.744Z,34.72
2022-12-31T06:37:12.271Z,34.13
2022-12-31T06:42:15.836Z,34.47
2022-12-31T06:47:23.717Z,34.03
2022-12-31T06:52:33.584Z,31.10
2022-12-31T06:57:50.533Z,35.08
2022-12-31T07:03:18.261Z,34.35
2022-12-31T07:08:35.177Z,33.97
2022-12-31T07:14:02.799Z,31.95
2022-12-31T07:19:17.244Z,30.08
2022-12-31T07:24:20.085Z,32.55
2022-12-31T07:29:21.280Z,30.55
2022-12-31T07:40:17.244Z,31.70
2022-12-31T07:56:36.292Z,32.53
2022-12-31T08:01:47.541Z,32.53
2022-12-31T08:12:33.460Z,30.55
2022-12-31T08:17:46.749Z,29.48
2022-12-31T08:28:17.564Z,28.88
2022-12-31T08:33:28.087Z,26.02
2022-12-31T08:38:36.544Z,22.95
2022-12-31T08:43:51.928Z,23.23
2022-12-31T08:48:54.565Z,21.73
2022-12-31T08:53:57.987Z,25.20
2022-12-31T08:59:21.200Z,21.75
2022-12-31T09:04:33.229Z,23.48
2022-12-31T09:09:46.075Z,27.83
2022-12-31T09:14:54.984Z,25.85
2022-12-31T09:19:57.712Z,22.58
2022-12-31T09:25:05.855Z,24.63
2022-12-31T09:35:59.620Z,21.55
2022-12-31T09:41:14.800Z,25.45
2022-12-31T09:52:47.291Z,24.00
2022-12-31T09:58:10.197Z,24.50
2022-12-31T10:03:30.860Z,22.70
2022-12-31T10:09:12.762Z,21.48
2022-12-31T12:31:22.098Z,24.60
2022-12-31T12:36:24.387Z,25.00
2022-12-31T12:41:27.856Z,27.08
2022-12-31T12:46:36.371Z,26.25
2022-12-31T12:51:48.918Z,25.85
2022-12-31T12:56:58.062Z,25.38
2022-12-31T13:02:19.627Z,25.00
2022-12-31T13:07:38.853Z,26.45
2022-12-31T13:13:22.743Z,26.40
2022-12-31T13:18:27.911Z,29.38
2022-12-31T13:23:39.790Z,28.05
2022-12-31T13:28:43.954Z,25.25
2022-12-31T13:33:51.573Z,24.60
2022-12-31T13:38:55.503Z,25.20
2022-12-31T13:44:05.709Z,27.27
2022-12-31T13:49:20.746Z,28.65
2022-12-31T13:54:33.389Z,27.63
2022-12-31T13:59:39.343Z,28.70
2022-12-31T14:04:50.173Z,30.50
2022-12-31T14:09:52.358Z,33.38
2022-12-31T14:15:03.942Z,34.85
2022-12-31T14:20:18.877Z,30.90
2022-12-31T14:25:28.863Z,33.10
2022-12-31T14:30:34.883Z,32.95
2022-12-31T14:35:48.477Z,30.67
2022-12-31T14:41:01.590Z,29.70
2022-12-31T14:46:12.615Z,31.02
2022-12-31T14:51:16.792Z,28.70
2022-12-31T14:56:33.518Z,28.95
2022-12-31T15:01:48.701Z,28.38
2022-12-31T15:07:06.891Z,28.70
2022-12-31T15:12:29.253Z,29.67
2022-12-31T15:17:42.864Z,29.45
2022-12-31T15:22:47.921Z,32.00
2022-12-31T15:27:50.532Z,32.45
2022-12-31T15:32:56.428Z,30.48
2022-12-31T15:38:02.574Z,32.85
2022-12-31T15:43:12.085Z,34.70
2022-12-31T15:48:19.701Z,38.40
2022-12-31T15:53:30.702Z,36.53
2022-12-31T15:58:38.380Z,36.90
2022-12-31T16:03:49.318Z,38.80
2022-12-31T16:08:53.516Z,37.30
2022-12-31T16:13:57.120Z,37.92
2022-12-31T16:19:01.204Z,38.95
2022-12-31T16:24:09.889Z,42.08
2022-12-31T16:29:16.965Z,42.22
2022-12-31T16:34:24.549Z,41.33
2022-12-31T16:39:33.361Z,41.92
2022-12-31T16:44:36.225Z,38.80
2022-12-31T16:49:40.372Z,38.10
2022-12-31T16:54:47.552Z,40.50
2022-12-31T16:59:54.660Z,42.05
2022-12-31T17:04:58.262Z,35.22
2022-12-31T17:10:15.634Z,35.40
2022-12-31T17:15:21.956Z,36.17
2022-12-31T17:20:27.362Z,39.30
2022-12-31T17:25:35.113Z,36.97
2022-12-31T17:30:43.391Z,37.53
2022-12-31T17:35:47.140Z,38.78
2022-12-31T17:40:53.354Z,37.53
2022-12-31T17:45:55.965Z,37.10
2022-12-31T17:51:00.202Z,34.42
2022-12-31T17:56:05.741Z,35.90
2022-12-31T18:01:09.712Z,42.22
2022-12-31T18:06:17.103Z,47.40
2022-12-31T18:11:23.348Z,45.55
2022-12-31T18:16:25.526Z,52.22
2022-12-31T18:21:32.465Z,46.83
2022-12-31T18:26:36.085Z,48.13
2022-12-31T18:31:39.529Z,39.20
2022-12-31T18:36:42.244Z,40.80
2022-12-31T18:41:49.726Z,41.83
2022-12-31T18:46:51.961Z,45.80
2022-12-31T18:51:55.300Z,47.53
2022-12-31T18:56:58.917Z,49.95
2022-12-31T19:02:04.333Z,50.25
2022-12-31T19:07:07.280Z,53.60
2022-12-31T19:12:13.832Z,57.50
2022-12-31T19:17:15.983Z,55.08
2022-12-31T19:22:18.105Z,66.65
2022-12-31T19:27:21.650Z,66.50
2022-12-31T19:32:23.882Z,59.88
2022-12-31T19:37:26.096Z,58.22
2022-12-31T19:42:29.644Z,66.45
2022-12-31T19:47:31.771Z,55.88
2022-12-31T19:52:33.913Z,48.92
2022-12-31T19:57:37.416Z,44.47
2022-12-31T20:02:40.107Z,45.17
2022-12-31T20:07:42.628Z,40.38
2022-12-31T20:12:46.168Z,58.88
2022-12-31T20:17:48.527Z,36.15
2022-12-31T20:22:50.636Z,33.40
2022-12-31T20:27:55.588Z,36.75
2022-12-31T20:32:58.152Z,39.10
2022-12-31T20:38:00.338Z,41.33
2022-12-31T20:43:04.891Z,34.22
2022-12-31T20:48:07.131Z,32.90
2022-12-31T20:53:09.634Z,36.50
2022-12-31T20:58:13.256Z,47.95
2022-12-31T21:04:02.352Z,50.35
2022-12-31T21:08:41.894Z,41.78
2022-12-31T21:13:45.488Z,57.97
2022-12-31T21:18:47.634Z,81.32
2022-12-31T21:23:49.776Z,54.45
2022-12-31T21:28:54.098Z,51.10
2022-12-31T21:33:57.992Z,45.30
2022-12-31T21:39:00.312Z,54.25
2022-12-31T21:44:04.513Z,48.08
2022-12-31T21:49:06.706Z,47.13
2022-12-31T21:54:29.081Z,50.78
2022-12-31T22:00:09.091Z,49.75
2022-12-31T22:05:19.746Z,45.50
2022-12-31T22:10:25.532Z,43.45
2022-12-31T22:15:32.497Z,41.55
2022-12-31T22:20:34.701Z,39.13
2022-12-31T22:25:38.397Z,37.97
2022-12-31T22:30:41.945Z,63.60
2022-12-31T22:35:44.164Z,57.88
2022-12-31T22:40:46.365Z,57.58
2022-12-31T22:45:50.134Z,62.25
2022-12-31T22:50:57.769Z,63.08
2022-12-31T22:56:00.746Z,63.25
2022-12-31T23:01:10.518Z,52.25
2022-12-31T23:06:12.912Z,55.00
2022-12-31T23:11:15.496Z,67.38
2022-12-31T23:16:36.540Z,119.63
2022-12-31T23:21:58.997Z,121.60
2022-12-31T23:27:01.146Z,107.05
2022-12-31T23:32:04.943Z,100.95
2022-12-31T23:37:07.080Z,162.38
2022-12-31T23:42:09.468Z,177.68
2022-12-31T23:47:13.017Z,102.25
2022-12-31T23:52:15.163Z,94.97
2022-12-31T23:57:17.272Z,97.13
